sensor_id;sensor_type;location;lat;lon;timestamp;pressure;altitude;pressure_sealevel;temperature;humidity
70521;BME280;58442;52.716;23.560;2023-05-29T00:00:14;101756.48;;;9.03;58.02
70521;BME280;58442;52.716;23.560;2023-05-29T00:02:24;101756.32;;;9.00;58.08
70521;BME280;58442;52.716;23.560;2023-05-29T00:04:26;101760.43;;;8.97;58.17
70521;BME280;58442;52.716;23.560;2023-05-29T00:06:27;101761.06;;;8.94;58.20
70521;BME280;58442;52.716;23.560;2023-05-29T00:08:30;101756.24;;;8.91;58.25
70521;BME280;58442;52.716;23.560;2023-05-29T00:10:37;101747.64;;;8.89;58.31
70521;BME280;58442;52.716;23.560;2023-05-29T00:12:38;101755.60;;;8.86;58.46
70521;BME280;58442;52.716;23.560;2023-05-29T00:14:41;101754.29;;;8.83;58.50
70521;BME280;58442;52.716;23.560;2023-05-29T00:16:42;101750.30;;;8.81;58.50
70521;BME280;58442;52.716;23.560;2023-05-29T00:18:52;101750.91;;;8.77;58.57
70521;BME280;58442;52.716;23.560;2023-05-29T00:20:54;101757.75;;;8.75;58.65
70521;BME280;58442;52.716;23.560;2023-05-29T00:22:56;101753.77;;;8.72;58.73
70521;BME280;58442;52.716;23.560;2023-05-29T00:24:58;101757.08;;;8.69;58.79
70521;BME280;58442;52.716;23.560;2023-05-29T00:27:07;101753.41;;;8.65;58.90
70521;BME280;58442;52.716;23.560;2023-05-29T00:29:09;101750.18;;;8.63;59.01
70521;BME280;58442;52.716;23.560;2023-05-29T00:31:11;101745.39;;;8.60;59.06
70521;BME280;58442;52.716;23.560;2023-05-29T00:33:12;101748.70;;;8.57;59.10
70521;BME280;58442;52.716;23.560;2023-05-29T00:35:22;101740.10;;;8.55;59.15
70521;BME280;58442;52.716;23.560;2023-05-29T00:37:23;101741.21;;;8.54;59.28
70521;BME280;58442;52.716;23.560;2023-05-29T00:39:26;101743.43;;;8.52;59.31
70521;BME280;58442;52.716;23.560;2023-05-29T00:41:28;101739.13;;;8.51;59.33
70521;BME280;58442;52.716;23.560;2023-05-29T00:43:37;101752.47;;;8.47;59.38
70521;BME280;58442;52.716;23.560;2023-05-29T00:45:38;101736.84;;;8.44;59.55
70521;BME280;58442;52.716;23.560;2023-05-29T00:47:41;101744.15;;;8.44;59.62
70521;BME280;58442;52.716;23.560;2023-05-29T00:49:43;101747.97;;;8.43;59.58
70521;BME280;58442;52.716;23.560;2023-05-29T00:51:52;101740.47;;;8.40;59.67
70521;BME280;58442;52.716;23.560;2023-05-29T00:53:57;101747.00;;;8.39;59.83
70521;BME280;58442;52.716;23.560;2023-05-29T00:56:00;101738.66;;;8.35;59.89
70521;BME280;58442;52.716;23.560;2023-05-29T00:58:04;101743.26;;;8.35;59.94
70521;BME280;58442;52.716;23.560;2023-05-29T01:00:07;101740.06;;;8.33;59.91
70521;BME280;58442;52.716;23.560;2023-05-29T01:02:16;101745.00;;;8.31;60.02
70521;BME280;58442;52.716;23.560;2023-05-29T01:04:20;101740.98;;;8.28;60.04
70521;BME280;58442;52.716;23.560;2023-05-29T01:06:24;101751.01;;;8.28;60.10
70521;BME280;58442;52.716;23.560;2023-05-29T01:08:26;101751.33;;;8.26;60.09
70521;BME280;58442;52.716;23.560;2023-05-29T01:10:28;101749.73;;;8.25;60.19
70521;BME280;58442;52.716;23.560;2023-05-29T01:17:03;101756.05;;;8.20;60.19
70521;BME280;58442;52.716;23.560;2023-05-29T01:26:17;101742.45;;;8.12;60.31
70521;BME280;58442;52.716;23.560;2023-05-29T01:28:29;101737.63;;;8.09;60.34
70521;BME280;58442;52.716;23.560;2023-05-29T01:30:33;101740.95;;;8.06;60.47
70521;BME280;58442;52.716;23.560;2023-05-29T01:32:36;101745.88;;;8.04;60.54
70521;BME280;58442;52.716;23.560;2023-05-29T01:34:38;101742.97;;;8.00;60.54
70521;BME280;58442;52.716;23.560;2023-05-29T01:36:41;101742.48;;;7.98;60.57
70521;BME280;58442;52.716;23.560;2023-05-29T01:38:43;101745.78;;;7.95;60.71
70521;BME280;58442;52.716;23.560;2023-05-29T01:40:45;101748.01;;;7.93;60.81
70521;BME280;58442;52.716;23.560;2023-05-29T01:42:48;101741.30;;;7.90;60.83
70521;BME280;58442;52.716;23.560;2023-05-29T01:44:56;101739.98;;;7.88;60.90
70521;BME280;58442;52.716;23.560;2023-05-29T01:46:59;101738.39;;;7.87;60.95
70521;BME280;58442;52.716;23.560;2023-05-29T01:49:01;101743.32;;;7.85;61.02
70521;BME280;58442;52.716;23.560;2023-05-29T01:51:04;101738.21;;;7.83;61.02
70521;BME280;58442;52.716;23.560;2023-05-29T01:53:10;101734.98;;;7.81;61.05
70521;BME280;58442;52.716;23.560;2023-05-29T01:55:12;101731.30;;;7.77;61.19
70521;BME280;58442;52.716;23.560;2023-05-29T01:57:14;101732.41;;;7.76;61.28
70521;BME280;58442;52.716;23.560;2023-05-29T01:59:15;101730.30;;;7.73;61.30
70521;BME280;58442;52.716;23.560;2023-05-29T02:01:25;101728.70;;;7.72;61.37
70521;BME280;58442;52.716;23.560;2023-05-29T02:03:27;101731.71;;;7.71;61.47
70521;BME280;58442;52.716;23.560;2023-05-29T02:05:32;101737.13;;;7.71;61.41
70521;BME280;58442;52.716;23.560;2023-05-29T02:07:34;101734.42;;;7.71;61.35
70521;BME280;58442;52.716;23.560;2023-05-29T02:09:40;101739.84;;;7.71;61.31
70521;BME280;58442;52.716;23.560;2023-05-29T02:11:42;101735.52;;;7.70;61.34
70521;BME280;58442;52.716;23.560;2023-05-29T02:13:46;101725.51;;;7.70;61.33
70521;BME280;58442;52.716;23.560;2023-05-29T02:15:47;101719.57;;;7.68;61.30
70521;BME280;58442;52.716;23.560;2023-05-29T02:17:55;101721.79;;;7.66;61.33
70521;BME280;58442;52.716;23.560;2023-05-29T02:19:58;101722.41;;;7.63;61.42
70521;BME280;58442;52.716;23.560;2023-05-29T02:22:00;101718.39;;;7.60;61.52
70521;BME280;58442;52.716;23.560;2023-05-29T02:24:02;101727.62;;;7.59;61.52
70521;BME280;58442;52.716;23.560;2023-05-29T02:26:12;101721.09;;;7.60;61.52
70521;BME280;58442;52.716;23.560;2023-05-29T02:28:16;101719.80;;;7.58;61.63
70521;BME280;58442;52.716;23.560;2023-05-29T02:30:17;101715.50;;;7.57;61.71
70521;BME280;58442;52.716;23.560;2023-05-29T02:32:19;101721.22;;;7.55;61.75
70521;BME280;58442;52.716;23.560;2023-05-29T02:34:25;101717.68;;;7.55;61.80
70521;BME280;58442;52.716;23.560;2023-05-29T02:36:27;101715.81;;;7.55;61.89
70521;BME280;58442;52.716;23.560;2023-05-29T02:38:29;101713.10;;;7.55;61.92
70521;BME280;58442;52.716;23.560;2023-05-29T02:40:30;101717.41;;;7.56;61.92
70521;BME280;58442;52.716;23.560;2023-05-29T02:42:41;101722.02;;;7.56;61.99
70521;BME280;58442;52.716;23.560;2023-05-29T02:44:42;101717.41;;;7.56;62.10
70521;BME280;58442;52.716;23.560;2023-05-29T02:46:44;101721.71;;;7.57;62.18
70521;BME280;58442;52.716;23.560;2023-05-29T02:48:45;101715.81;;;7.55;62.20
70521;BME280;58442;52.716;23.560;2023-05-29T02:50:55;101717.41;;;7.56;62.25
70521;BME280;58442;52.716;23.560;2023-05-29T02:52:56;101717.90;;;7.58;62.27
70521;BME280;58442;52.716;23.560;2023-05-29T02:54:58;101719.18;;;7.61;62.26
70521;BME280;58442;52.716;23.560;2023-05-29T02:57:02;101718.91;;;7.62;62.21
70521;BME280;58442;52.716;23.560;2023-05-29T02:59:10;101717.01;;;7.63;62.23
70521;BME280;58442;52.716;23.560;2023-05-29T03:01:11;101717.80;;;7.63;62.41
70521;BME280;58442;52.716;23.560;2023-05-29T03:03:13;101720.20;;;7.65;62.50
70521;BME280;58442;52.716;23.560;2023-05-29T03:05:15;101714.79;;;7.65;62.53
70521;BME280;58442;52.716;23.560;2023-05-29T03:07:24;101707.16;;;7.67;62.58
70521;BME280;58442;52.716;23.560;2023-05-29T03:09:26;101709.27;;;7.70;62.71
70521;BME280;58442;52.716;23.560;2023-05-29T03:11:28;101713.27;;;7.73;62.76
70521;BME280;58442;52.716;23.560;2023-05-29T03:13:31;101702.92;;;7.75;62.79
70521;BME280;58442;52.716;23.560;2023-05-29T03:15:39;101709.66;;;7.77;62.79
70521;BME280;58442;52.716;23.560;2023-05-29T03:17:41;101706.64;;;7.79;62.93
70521;BME280;58442;52.716;23.560;2023-05-29T03:19:43;101714.13;;;7.82;62.99
70521;BME280;58442;52.716;23.560;2023-05-29T03:21:44;101715.45;;;7.84;62.98
70521;BME280;58442;52.716;23.560;2023-05-29T03:23:54;101707.82;;;7.86;63.02
70521;BME280;58442;52.716;23.560;2023-05-29T03:25:56;101706.12;;;7.90;63.14
70521;BME280;58442;52.716;23.560;2023-05-29T03:27:58;101715.52;;;7.93;63.20
70521;BME280;58442;52.716;23.560;2023-05-29T03:29:59;101713.02;;;7.97;63.19
70521;BME280;58442;52.716;23.560;2023-05-29T03:32:10;101717.01;;;7.99;63.28
70521;BME280;58442;52.716;23.560;2023-05-29T03:34:11;101721.52;;;8.04;63.45
70521;BME280;58442;52.716;23.560;2023-05-29T03:36:14;101716.28;;;8.07;63.56
70521;BME280;58442;52.716;23.560;2023-05-29T03:38:18;101719.18;;;8.11;63.56
70521;BME280;58442;52.716;23.560;2023-05-29T03:40:24;101725.27;;;8.16;63.57
70521;BME280;58442;52.716;23.560;2023-05-29T03:42:26;101727.06;;;8.21;63.71
70521;BME280;58442;52.716;23.560;2023-05-29T03:44:28;101728.87;;;8.26;63.75
70521;BME280;58442;52.716;23.560;2023-05-29T03:46:30;101729.03;;;8.29;63.72
70521;BME280;58442;52.716;23.560;2023-05-29T03:48:39;101729.23;;;8.33;63.82
70521;BME280;58442;52.716;23.560;2023-05-29T03:50:41;101729.15;;;8.38;63.99
70521;BME280;58442;52.716;23.560;2023-05-29T03:52:42;101741.75;;;8.42;64.03
70521;BME280;58442;52.716;23.560;2023-05-29T03:54:44;101737.02;;;8.48;64.01
70521;BME280;58442;52.716;23.560;2023-05-29T03:56:54;101738.01;;;8.52;64.05
70521;BME280;58442;52.716;23.560;2023-05-29T03:58:56;101732.77;;;8.56;64.15
70521;BME280;58442;52.716;23.560;2023-05-29T04:00:58;101734.55;;;8.60;64.18
70521;BME280;58442;52.716;23.560;2023-05-29T04:02:59;101741.25;;;8.63;64.15
70521;BME280;58442;52.716;23.560;2023-05-29T04:05:09;101736.51;;;8.68;64.17
70521;BME280;58442;52.716;23.560;2023-05-29T04:07:11;101734.28;;;8.70;64.31
70521;BME280;58442;52.716;23.560;2023-05-29T04:09:13;101731.77;;;8.74;64.33
70521;BME280;58442;52.716;23.560;2023-05-29T04:11:14;101734.64;;;8.77;64.31
70521;BME280;58442;52.716;23.560;2023-05-29T04:13:24;101742.65;;;8.83;64.33
70521;BME280;58442;52.716;23.560;2023-05-29T04:15:26;101743.64;;;8.87;64.42
70521;BME280;58442;52.716;23.560;2023-05-29T04:17:29;101734.08;;;8.89;64.48
70521;BME280;58442;52.716;23.560;2023-05-29T04:19:31;101736.47;;;8.91;64.55
70521;BME280;58442;52.716;23.560;2023-05-29T04:21:39;101741.29;;;8.94;64.66
70521;BME280;58442;52.716;23.560;2023-05-29T04:23:40;101736.35;;;8.96;64.85
70521;BME280;58442;52.716;23.560;2023-05-29T04:25:42;101735.70;;;8.99;64.93
70521;BME280;58442;52.716;23.560;2023-05-29T04:27:45;101742.12;;;9.03;64.97
70521;BME280;58442;52.716;23.560;2023-05-29T04:29:54;101738.49;;;9.08;65.08
70521;BME280;58442;52.716;23.560;2023-05-29T04:31:57;101739.44;;;9.12;65.24
70521;BME280;58442;52.716;23.560;2023-05-29T04:33:58;101733.09;;;9.16;65.34
70521;BME280;58442;52.716;23.560;2023-05-29T04:36:05;101735.98;;;9.20;65.44
70521;BME280;58442;52.716;23.560;2023-05-29T04:38:11;101738.55;;;9.25;65.49
70521;BME280;58442;52.716;23.560;2023-05-29T04:40:16;101732.66;;;9.31;65.65
70521;BME280;58442;52.716;23.560;2023-05-29T04:42:18;101733.65;;;9.36;65.70
70521;BME280;58442;52.716;23.560;2023-05-29T04:44:20;101733.19;;;9.42;65.74
70521;BME280;58442;52.716;23.560;2023-05-29T04:46:24;101739.75;;;9.50;65.78
70521;BME280;58442;52.716;23.560;2023-05-29T04:48:26;101747.76;;;9.55;65.91
70521;BME280;58442;52.716;23.560;2023-05-29T04:50:28;101734.80;;;9.60;65.93
70521;BME280;58442;52.716;23.560;2023-05-29T04:52:32;101742.49;;;9.67;65.90
70521;BME280;58442;52.716;23.560;2023-05-29T04:54:39;101740.43;;;9.73;65.91
70521;BME280;58442;52.716;23.560;2023-05-29T04:56:40;101742.36;;;9.81;66.02
70521;BME280;58442;52.716;23.560;2023-05-29T04:58:43;101737.59;;;9.86;66.06
70521;BME280;58442;52.716;23.560;2023-05-29T05:00:44;101737.11;;;9.93;66.04
70521;BME280;58442;52.716;23.560;2023-05-29T05:02:54;101732.80;;;10.01;66.11
70521;BME280;58442;52.716;23.560;2023-05-29T05:04:57;101733.13;;;10.08;66.20
70521;BME280;58442;52.716;23.560;2023-05-29T05:07:00;101733.45;;;10.15;66.24
70521;BME280;58442;52.716;23.560;2023-05-29T05:09:01;101738.13;;;10.23;66.22
70521;BME280;58442;52.716;23.560;2023-05-29T05:11:08;101735.41;;;10.32;66.24
70521;BME280;58442;52.716;23.560;2023-05-29T05:13:10;101738.11;;;10.40;66.34
70521;BME280;58442;52.716;23.560;2023-05-29T05:15:14;101738.10;;;10.49;66.35
70521;BME280;58442;52.716;23.560;2023-05-29T05:17:15;101736.97;;;10.59;66.32
70521;BME280;58442;52.716;23.560;2023-05-29T05:19:23;101737.75;;;10.68;66.33
70521;BME280;58442;52.716;23.560;2023-05-29T05:21:25;101738.52;;;10.77;66.43
70521;BME280;58442;52.716;23.560;2023-05-29T05:23:26;101739.31;;;10.86;66.46
70521;BME280;58442;52.716;23.560;2023-05-29T05:25:28;101736.55;;;10.95;66.42
70521;BME280;58442;52.716;23.560;2023-05-29T05:27:38;101739.73;;;11.06;66.49
70521;BME280;58442;52.716;23.560;2023-05-29T05:29:39;101735.84;;;11.15;66.61
70521;BME280;58442;52.716;23.560;2023-05-29T05:31:41;101748.27;;;11.25;66.59
70521;BME280;58442;52.716;23.560;2023-05-29T05:33:45;101744.09;;;11.36;66.53
70521;BME280;58442;52.716;23.560;2023-05-29T05:35:53;101737.95;;;11.48;66.52
70521;BME280;58442;52.716;23.560;2023-05-29T05:37:54;101736.76;;;11.58;66.65
70521;BME280;58442;52.716;23.560;2023-05-29T05:39:59;101725.96;;;11.70;66.63
70521;BME280;58442;52.716;23.560;2023-05-29T05:42:01;101738.10;;;11.81;66.55
70521;BME280;58442;52.716;23.560;2023-05-29T05:44:08;101732.24;;;11.91;66.50
70521;BME280;58442;52.716;23.560;2023-05-29T05:46:09;101735.05;;;12.03;66.54
70521;BME280;58442;52.716;23.560;2023-05-29T05:48:12;101732.40;;;12.16;66.39
70521;BME280;58442;52.716;23.560;2023-05-29T05:50:14;101735.15;;;12.28;66.22
70521;BME280;58442;52.716;23.560;2023-05-29T05:52:24;101730.23;;;12.42;66.05
70521;BME280;58442;52.716;23.560;2023-05-29T05:54:31;101732.19;;;12.54;65.85
70521;BME280;58442;52.716;23.560;2023-05-29T05:56:32;101739.63;;;12.66;65.62
70521;BME280;58442;52.716;23.560;2023-05-29T05:58:33;101736.15;;;12.77;65.30
70521;BME280;58442;52.716;23.560;2023-05-29T06:00:39;101739.66;;;12.90;64.95
70521;BME280;58442;52.716;23.560;2023-05-29T06:02:40;101734.72;;;13.04;64.53
70521;BME280;58442;52.716;23.560;2023-05-29T06:04:45;101739.05;;;13.18;64.09
70521;BME280;58442;52.716;23.560;2023-05-29T06:06:46;101736.34;;;13.30;63.74
70521;BME280;58442;52.716;23.560;2023-05-29T06:08:53;101738.73;;;13.44;63.43
70521;BME280;58442;52.716;23.560;2023-05-29T06:10:54;101731.32;;;13.56;63.10
70521;BME280;58442;52.716;23.560;2023-05-29T06:12:56;101733.25;;;13.68;62.82
70521;BME280;58442;52.716;23.560;2023-05-29T06:14:58;101732.77;;;13.78;62.52
70521;BME280;58442;52.716;23.560;2023-05-29T06:17:07;101735.13;;;13.92;62.20
70521;BME280;58442;52.716;23.560;2023-05-29T06:19:09;101736.26;;;14.03;61.87
70521;BME280;58442;52.716;23.560;2023-05-29T06:21:14;101737.37;;;14.14;61.66
70521;BME280;58442;52.716;23.560;2023-05-29T06:23:15;101736.86;;;14.24;61.38
70521;BME280;58442;52.716;23.560;2023-05-29T06:25:22;101738.05;;;14.39;61.07
70521;BME280;58442;52.716;23.560;2023-05-29T06:27:44;101743.02;;;14.62;60.51
70521;BME280;58442;52.716;23.560;2023-05-29T06:29:46;101740.84;;;14.83;60.06
70521;BME280;58442;52.716;23.560;2023-05-29T06:31:47;101735.02;;;15.00;59.69
70521;BME280;58442;52.716;23.560;2023-05-29T06:33:49;101740.14;;;15.18;59.50
70521;BME280;58442;52.716;23.560;2023-05-29T06:35:58;101732.72;;;15.34;58.88
70521;BME280;58442;52.716;23.560;2023-05-29T06:38:00;101736.30;;;15.54;58.28
70521;BME280;58442;52.716;23.560;2023-05-29T06:40:02;101735.23;;;15.74;57.69
70521;BME280;58442;52.716;23.560;2023-05-29T06:42:05;101728.63;;;15.95;57.21
70521;BME280;58442;52.716;23.560;2023-05-29T06:44:13;101730.22;;;16.15;56.62
70521;BME280;58442;52.716;23.560;2023-05-29T06:46:14;101729.34;;;16.30;56.03
70521;BME280;58442;52.716;23.560;2023-05-29T06:48:16;101724.93;;;16.45;55.95
70521;BME280;58442;52.716;23.560;2023-05-29T06:50:18;101729.89;;;16.59;55.50
70521;BME280;58442;52.716;23.560;2023-05-29T06:52:27;101725.60;;;16.81;55.12
70521;BME280;58442;52.716;23.560;2023-05-29T06:54:29;101731.54;;;17.06;54.33
70521;BME280;58442;52.716;23.560;2023-05-29T06:56:31;101730.71;;;17.28;53.67
70521;BME280;58442;52.716;23.560;2023-05-29T06:58:33;101727.05;;;17.43;53.26
70521;BME280;58442;52.716;23.560;2023-05-29T07:00:42;101725.23;;;17.55;52.93
70521;BME280;58442;52.716;23.560;2023-05-29T07:02:43;101722.27;;;17.67;52.13
70521;BME280;58442;52.716;23.560;2023-05-29T07:04:45;101728.74;;;17.78;51.69
70521;BME280;58442;52.716;23.560;2023-05-29T07:06:46;101734.44;;;17.92;51.31
70521;BME280;58442;52.716;23.560;2023-05-29T07:08:57;101725.93;;;18.04;51.15
70521;BME280;58442;52.716;23.560;2023-05-29T07:10:59;101729.20;;;18.14;50.92
70521;BME280;58442;52.716;23.560;2023-05-29T07:13:01;101736.37;;;18.22;50.79
70521;BME280;58442;52.716;23.560;2023-05-29T07:15:02;101731.80;;;18.33;50.39
70521;BME280;58442;52.716;23.560;2023-05-29T07:17:12;101731.51;;;18.45;49.83
70521;BME280;58442;52.716;23.560;2023-05-29T07:19:13;101736.81;;;18.61;49.25
70521;BME280;58442;52.716;23.560;2023-05-29T07:21:17;101733.45;;;18.75;48.75
70521;BME280;58442;52.716;23.560;2023-05-29T07:23:21;101735.17;;;18.94;48.21
70521;BME280;58442;52.716;23.560;2023-05-29T07:25:26;101738.87;;;19.08;47.77
70521;BME280;58442;52.716;23.560;2023-05-29T07:27:28;101740.91;;;19.19;47.24
70521;BME280;58442;52.716;23.560;2023-05-29T07:29:29;101733.09;;;19.28;46.93
70521;BME280;58442;52.716;23.560;2023-05-29T07:31:31;101740.66;;;19.38;46.72
70521;BME280;58442;52.716;23.560;2023-05-29T07:33:41;101725.00;;;19.53;46.40
70521;BME280;58442;52.716;23.560;2023-05-29T07:35:43;101725.91;;;19.67;45.99
70521;BME280;58442;52.716;23.560;2023-05-29T07:37:45;101719.71;;;19.85;45.54
70521;BME280;58442;52.716;23.560;2023-05-29T07:39:48;101721.74;;;20.02;45.09
70521;BME280;58442;52.716;23.560;2023-05-29T07:41:56;101722.19;;;20.15;44.66
70521;BME280;58442;52.716;23.560;2023-05-29T07:43:58;101725.40;;;20.28;44.17
70521;BME280;58442;52.716;23.560;2023-05-29T07:45:59;101717.52;;;20.37;43.75
70521;BME280;58442;52.716;23.560;2023-05-29T07:48:01;101715.61;;;20.48;43.62
70521;BME280;58442;52.716;23.560;2023-05-29T07:50:13;101723.53;;;20.60;43.46
70521;BME280;58442;52.716;23.560;2023-05-29T07:52:15;101726.33;;;20.74;43.17
70521;BME280;58442;52.716;23.560;2023-05-29T07:54:17;101718.42;;;20.84;43.04
70521;BME280;58442;52.716;23.560;2023-05-29T07:56:22;101713.71;;;20.95;42.77
70521;BME280;58442;52.716;23.560;2023-05-29T07:58:25;101718.42;;;21.05;42.65
70521;BME280;58442;52.716;23.560;2023-05-29T08:00:28;101717.25;;;21.17;42.32
70521;BME280;58442;52.716;23.560;2023-05-29T08:02:29;101720.02;;;21.27;42.04
70521;BME280;58442;52.716;23.560;2023-05-29T08:04:32;101715.66;;;21.41;41.79
70521;BME280;58442;52.716;23.560;2023-05-29T08:06:40;101721.19;;;21.55;41.54
70521;BME280;58442;52.716;23.560;2023-05-29T08:08:44;101715.99;;;21.68;41.10
70521;BME280;58442;52.716;23.560;2023-05-29T08:10:46;101712.01;;;21.79;40.91
70521;BME280;58442;52.716;23.560;2023-05-29T08:12:47;101718.31;;;21.91;40.85
70521;BME280;58442;52.716;23.560;2023-05-29T08:14:55;101715.89;;;22.03;40.59
70521;BME280;58442;52.716;23.560;2023-05-29T08:16:57;101721.39;;;22.14;40.29
70521;BME280;58442;52.716;23.560;2023-05-29T08:18:59;101718.18;;;22.23;40.06
70521;BME280;58442;52.716;23.560;2023-05-29T08:21:01;101711.81;;;22.29;39.97
70521;BME280;58442;52.716;23.560;2023-05-29T08:23:09;101709.01;;;22.36;39.86
70521;BME280;58442;52.716;23.560;2023-05-29T08:25:11;101707.01;;;22.44;39.75
70521;BME280;58442;52.716;23.560;2023-05-29T08:27:13;101712.46;;;22.55;39.72
70521;BME280;58442;52.716;23.560;2023-05-29T08:29:16;101713.98;;;22.66;39.54
70521;BME280;58442;52.716;23.560;2023-05-29T08:31:24;101703.21;;;22.76;39.35
70521;BME280;58442;52.716;23.560;2023-05-29T08:33:27;101711.84;;;22.85;39.03
70521;BME280;58442;52.716;23.560;2023-05-29T08:35:31;101711.42;;;22.93;38.87
70521;BME280;58442;52.716;23.560;2023-05-29T08:37:33;101704.99;;;23.04;38.71
70521;BME280;58442;52.716;23.560;2023-05-29T08:39:39;101702.92;;;23.15;38.53
70521;BME280;58442;52.716;23.560;2023-05-29T08:41:51;101713.53;;;23.24;38.27
70521;BME280;58442;52.716;23.560;2023-05-29T08:43:59;101697.18;;;23.33;38.09
70521;BME280;58442;52.716;23.560;2023-05-29T08:46:02;101706.24;;;23.40;37.79
70521;BME280;58442;52.716;23.560;2023-05-29T08:48:05;101699.84;;;23.47;37.71
70521;BME280;58442;52.716;23.560;2023-05-29T08:50:08;101700.55;;;23.55;37.44
70521;BME280;58442;52.716;23.560;2023-05-29T08:52:16;101697.72;;;23.62;37.20
70521;BME280;58442;52.716;23.560;2023-05-29T08:54:18;101699.23;;;23.66;37.17
70521;BME280;58442;52.716;23.560;2023-05-29T08:56:20;101694.02;;;23.72;37.08
70521;BME280;58442;52.716;23.560;2023-05-29T08:58:24;101691.16;;;23.79;36.93
70521;BME280;58442;52.716;23.560;2023-05-29T09:00:27;101693.42;;;23.88;36.87
70521;BME280;58442;52.716;23.560;2023-05-29T09:02:30;101688.59;;;23.95;36.73
70521;BME280;58442;52.716;23.560;2023-05-29T09:04:32;101684.13;;;24.01;36.60
70521;BME280;58442;52.716;23.560;2023-05-29T09:06:34;101677.69;;;24.08;36.41
70521;BME280;58442;52.716;23.560;2023-05-29T09:08:36;101680.77;;;24.17;36.31
70521;BME280;58442;52.716;23.560;2023-05-29T09:10:40;101685.37;;;24.27;36.20
70521;BME280;58442;52.716;23.560;2023-05-29T09:12:46;101683.30;;;24.35;36.13
70521;BME280;58442;52.716;23.560;2023-05-29T09:14:49;101681.16;;;24.46;35.90
70521;BME280;58442;52.716;23.560;2023-05-29T09:16:50;101678.38;;;24.46;35.76
70521;BME280;58442;52.716;23.560;2023-05-29T09:18:52;101669.96;;;24.50;35.68
70521;BME280;58442;52.716;23.560;2023-05-29T09:21:08;101670.71;;;24.54;35.66
70521;BME280;58442;52.716;23.560;2023-05-29T09:23:10;101672.59;;;24.61;35.54
70521;BME280;58442;52.716;23.560;2023-05-29T09:25:11;101674.04;;;24.69;35.49
70521;BME280;58442;52.716;23.560;2023-05-29T09:27:14;101678.23;;;24.80;35.25
70521;BME280;58442;52.716;23.560;2023-05-29T09:29:16;101671.70;;;24.91;35.14
70521;BME280;58442;52.716;23.560;2023-05-29T09:31:18;101669.65;;;24.95;34.93
70521;BME280;58442;52.716;23.560;2023-05-29T09:33:22;101677.08;;;25.01;34.87
70521;BME280;58442;52.716;23.560;2023-05-29T09:35:23;101676.20;;;25.08;34.76
70521;BME280;58442;52.716;23.560;2023-05-29T09:37:30;101664.99;;;25.12;34.72
70521;BME280;58442;52.716;23.560;2023-05-29T09:39:33;101674.51;;;25.14;34.69
70521;BME280;58442;52.716;23.560;2023-05-29T09:41:44;101668.02;;;25.21;34.51
70521;BME280;58442;52.716;23.560;2023-05-29T09:43:48;101676.24;;;25.28;34.37
70521;BME280;58442;52.716;23.560;2023-05-29T09:45:50;101677.76;;;25.32;34.32
70521;BME280;58442;52.716;23.560;2023-05-29T09:47:52;101666.88;;;25.38;34.12
70521;BME280;58442;52.716;23.560;2023-05-29T09:49:54;101666.84;;;25.42;34.04
70521;BME280;58442;52.716;23.560;2023-05-29T09:51:57;101662.41;;;25.44;33.90
70521;BME280;58442;52.716;23.560;2023-05-29T09:56:23;101656.63;;;25.35;33.97
70521;BME280;58442;52.716;23.560;2023-05-29T09:58:26;101665.96;;;25.45;33.80
70521;BME280;58442;52.716;23.560;2023-05-29T10:00:28;101665.04;;;25.51;33.67
70521;BME280;58442;52.716;23.560;2023-05-29T10:02:31;101661.77;;;25.56;33.56
70521;BME280;58442;52.716;23.560;2023-05-29T10:04:35;101662.05;;;25.62;33.47
70521;BME280;58442;52.716;23.560;2023-05-29T10:06:44;101665.53;;;25.66;33.40
70521;BME280;58442;52.716;23.560;2023-05-29T10:08:50;101661.48;;;25.71;33.41
70521;BME280;58442;52.716;23.560;2023-05-29T10:11:00;101657.88;;;25.74;33.23
70521;BME280;58442;52.716;23.560;2023-05-29T10:13:15;101660.66;;;25.74;33.34
70521;BME280;58442;52.716;23.560;2023-05-29T10:15:19;101659.01;;;25.76;33.28
70521;BME280;58442;52.716;23.560;2023-05-29T10:17:36;101656.27;;;25.73;33.24
70521;BME280;58442;52.716;23.560;2023-05-29T10:19:40;101659.84;;;25.73;32.98
70521;BME280;58442;52.716;23.560;2023-05-29T10:21:44;101658.13;;;25.79;32.84
70521;BME280;58442;52.716;23.560;2023-05-29T10:23:50;101650.84;;;25.85;32.67
70521;BME280;58442;52.716;23.560;2023-05-29T10:25:53;101646.33;;;25.91;32.59
70521;BME280;58442;52.716;23.560;2023-05-29T10:27:56;101643.40;;;25.99;32.33
70521;BME280;58442;52.716;23.560;2023-05-29T10:30:04;101649.24;;;26.04;32.31
70521;BME280;58442;52.716;23.560;2023-05-29T10:34:31;101640.14;;;25.84;32.43
70521;BME280;58442;52.716;23.560;2023-05-29T10:36:38;101649.72;;;25.83;32.48
70521;BME280;58442;52.716;23.560;2023-05-29T10:38:48;101641.27;;;25.86;32.48
70521;BME280;58442;52.716;23.560;2023-05-29T10:40:50;101643.11;;;25.93;32.46
70521;BME280;58442;52.716;23.560;2023-05-29T10:42:52;101634.70;;;25.97;32.43
70521;BME280;58442;52.716;23.560;2023-05-29T10:44:59;101635.76;;;26.03;32.42
70521;BME280;58442;52.716;23.560;2023-05-29T10:47:05;101635.16;;;26.11;32.39
70521;BME280;58442;52.716;23.560;2023-05-29T10:51:28;101631.34;;;26.22;32.21
70521;BME280;58442;52.716;23.560;2023-05-29T10:53:34;101626.02;;;26.27;32.26
70521;BME280;58442;52.716;23.560;2023-05-29T10:55:41;101620.38;;;26.31;32.31
70521;BME280;58442;52.716;23.560;2023-05-29T10:57:47;101627.44;;;26.35;32.18
70521;BME280;58442;52.716;23.560;2023-05-29T10:59:59;101629.42;;;26.18;32.26
70521;BME280;58442;52.716;23.560;2023-05-29T11:02:04;101628.56;;;26.22;32.23